sensor_id;sensor_type;location;lat;lon;timestamp;P1;durP1;ratioP1;P2;durP2;ratioP2
56599;SDS011;51832;48.152;11.530;2024-03-08T00:02:17;14.57;;;8.77;;
56599;SDS011;51832;48.152;11.530;2024-03-08T00:07:17;13.98;;;7.57;;
56599;SDS011;51832;48.152;11.530;2024-03-08T00:12:18;15.77;;;8.00;;
56599;SDS011;51832;48.152;11.530;2024-03-08T00:17:18;15.05;;;8.30;;
56599;SDS011;51832;48.152;11.530;2024-03-08T00:22:19;15.93;;;8.68;;
56599;SDS011;51832;48.152;11.530;2024-03-08T00:27:19;16.63;;;8.90;;
56599;SDS011;51832;48.152;11.530;2024-03-08T00:32:21;16.27;;;8.25;;
56599;SDS011;51832;48.152;11.530;2024-03-08T00:37:24;17.10;;;8.82;;
56599;SDS011;51832;48.152;11.530;2024-03-08T00:42:27;18.15;;;9.02;;
56599;SDS011;51832;48.152;11.530;2024-03-08T00:47:28;14.32;;;7.78;;
56599;SDS011;51832;48.152;11.530;2024-03-08T00:52:28;18.25;;;9.18;;
56599;SDS011;51832;48.152;11.530;2024-03-08T00:57:29;17.85;;;9.38;;
56599;SDS011;51832;48.152;11.530;2024-03-08T01:02:30;17.92;;;8.77;;
56599;SDS011;51832;48.152;11.530;2024-03-08T01:07:30;19.77;;;9.90;;
56599;SDS011;51832;48.152;11.530;2024-03-08T01:12:31;17.70;;;9.95;;
56599;SDS011;51832;48.152;11.530;2024-03-08T01:17:31;19.10;;;8.68;;
56599;SDS011;51832;48.152;11.530;2024-03-08T01:22:32;17.15;;;8.75;;
56599;SDS011;51832;48.152;11.530;2024-03-08T01:27:32;17.58;;;8.77;;
56599;SDS011;51832;48.152;11.530;2024-03-08T01:32:35;18.70;;;8.98;;
56599;SDS011;51832;48.152;11.530;2024-03-08T01:37:35;15.90;;;8.90;;
56599;SDS011;51832;48.152;11.530;2024-03-08T01:42:36;22.05;;;9.52;;
56599;SDS011;51832;48.152;11.530;2024-03-08T01:47:37;18.50;;;9.13;;
56599;SDS011;51832;48.152;11.530;2024-03-08T01:52:38;18.90;;;9.07;;
56599;SDS011;51832;48.152;11.530;2024-03-08T01:57:39;19.67;;;10.30;;
56599;SDS011;51832;48.152;11.530;2024-03-08T02:02:39;18.65;;;10.18;;
56599;SDS011;51832;48.152;11.530;2024-03-08T02:07:42;19.00;;;9.15;;
56599;SDS011;51832;48.152;11.530;2024-03-08T02:12:44;17.08;;;9.10;;
56599;SDS011;51832;48.152;11.530;2024-03-08T02:17:46;18.67;;;9.20;;
56599;SDS011;51832;48.152;11.530;2024-03-08T02:22:47;17.52;;;9.48;;
56599;SDS011;51832;48.152;11.530;2024-03-08T02:27:49;19.00;;;10.48;;
56599;SDS011;51832;48.152;11.530;2024-03-08T02:32:50;19.20;;;9.00;;
56599;SDS011;51832;48.152;11.530;2024-03-08T02:37:50;17.70;;;9.45;;
56599;SDS011;51832;48.152;11.530;2024-03-08T02:42:51;20.10;;;10.02;;
56599;SDS011;51832;48.152;11.530;2024-03-08T02:47:51;21.77;;;9.55;;
56599;SDS011;51832;48.152;11.530;2024-03-08T02:52:52;21.02;;;11.40;;
56599;SDS011;51832;48.152;11.530;2024-03-08T02:57:52;19.65;;;9.43;;
56599;SDS011;51832;48.152;11.530;2024-03-08T03:02:56;23.02;;;10.90;;
56599;SDS011;51832;48.152;11.530;2024-03-08T03:07:57;20.27;;;10.68;;
56599;SDS011;51832;48.152;11.530;2024-03-08T03:13:01;22.10;;;10.95;;
56599;SDS011;51832;48.152;11.530;2024-03-08T03:18:01;17.25;;;9.70;;
56599;SDS011;51832;48.152;11.530;2024-03-08T03:23:02;23.52;;;10.70;;
56599;SDS011;51832;48.152;11.530;2024-03-08T03:28:03;20.05;;;10.52;;
56599;SDS011;51832;48.152;11.530;2024-03-08T03:33:04;20.38;;;11.00;;
56599;SDS011;51832;48.152;11.530;2024-03-08T03:38:08;20.15;;;9.95;;
56599;SDS011;51832;48.152;11.530;2024-03-08T03:43:08;22.02;;;10.82;;
56599;SDS011;51832;48.152;11.530;2024-03-08T03:53:12;20.45;;;10.20;;
56599;SDS011;51832;48.152;11.530;2024-03-08T03:58:13;22.90;;;10.52;;
56599;SDS011;51832;48.152;11.530;2024-03-08T04:03:14;23.98;;;11.30;;
56599;SDS011;51832;48.152;11.530;2024-03-08T04:08:14;25.13;;;10.93;;
56599;SDS011;51832;48.152;11.530;2024-03-08T04:13:16;23.60;;;11.57;;
56599;SDS011;51832;48.152;11.530;2024-03-08T04:18:17;23.48;;;10.82;;
56599;SDS011;51832;48.152;11.530;2024-03-08T04:23:18;24.67;;;10.95;;
56599;SDS011;51832;48.152;11.530;2024-03-08T04:28:19;23.40;;;11.68;;
56599;SDS011;51832;48.152;11.530;2024-03-08T04:33:20;22.08;;;11.23;;
56599;SDS011;51832;48.152;11.530;2024-03-08T04:38:22;24.65;;;11.85;;
56599;SDS011;51832;48.152;11.530;2024-03-08T04:43:22;25.10;;;12.30;;
56599;SDS011;51832;48.152;11.530;2024-03-08T04:48:26;25.30;;;11.68;;
56599;SDS011;51832;48.152;11.530;2024-03-08T04:53:27;24.08;;;12.68;;
56599;SDS011;51832;48.152;11.530;2024-03-08T04:58:27;24.17;;;12.68;;
56599;SDS011;51832;48.152;11.530;2024-03-08T05:03:28;28.65;;;12.65;;
56599;SDS011;51832;48.152;11.530;2024-03-08T05:08:30;25.30;;;12.30;;
56599;SDS011;51832;48.152;11.530;2024-03-08T05:13:30;25.88;;;12.80;;
56599;SDS011;51832;48.152;11.530;2024-03-08T05:18:31;25.83;;;12.57;;
56599;SDS011;51832;48.152;11.530;2024-03-08T05:23:32;26.90;;;12.45;;
56599;SDS011;51832;48.152;11.530;2024-03-08T05:28:34;26.23;;;12.85;;
56599;SDS011;51832;48.152;11.530;2024-03-08T05:33:34;25.92;;;13.15;;
56599;SDS011;51832;48.152;11.530;2024-03-08T05:38:35;27.40;;;12.88;;
56599;SDS011;51832;48.152;11.530;2024-03-08T05:43:35;24.70;;;12.43;;
56599;SDS011;51832;48.152;11.530;2024-03-08T05:48:36;27.13;;;12.68;;
56599;SDS011;51832;48.152;11.530;2024-03-08T05:53:37;23.75;;;12.65;;
56599;SDS011;51832;48.152;11.530;2024-03-08T05:58:38;23.90;;;12.10;;
56599;SDS011;51832;48.152;11.530;2024-03-08T06:03:38;27.02;;;12.82;;
56599;SDS011;51832;48.152;11.530;2024-03-08T06:08:45;27.02;;;12.60;;
56599;SDS011;51832;48.152;11.530;2024-03-08T06:13:47;31.00;;;13.18;;
56599;SDS011;51832;48.152;11.530;2024-03-08T06:18:49;26.00;;;12.13;;
56599;SDS011;51832;48.152;11.530;2024-03-08T06:23:50;24.55;;;11.05;;
56599;SDS011;51832;48.152;11.530;2024-03-08T06:28:51;26.35;;;12.13;;
56599;SDS011;51832;48.152;11.530;2024-03-08T06:33:52;26.33;;;11.75;;
56599;SDS011;51832;48.152;11.530;2024-03-08T06:38:54;26.23;;;12.13;;
56599;SDS011;51832;48.152;11.530;2024-03-08T06:43:56;22.98;;;11.60;;
56599;SDS011;51832;48.152;11.530;2024-03-08T06:48:58;27.02;;;11.88;;
56599;SDS011;51832;48.152;11.530;2024-03-08T06:53:58;28.40;;;12.07;;
56599;SDS011;51832;48.152;11.530;2024-03-08T06:58:59;27.83;;;11.73;;
56599;SDS011;51832;48.152;11.530;2024-03-08T07:04:00;24.83;;;10.90;;
56599;SDS011;51832;48.152;11.530;2024-03-08T07:09:05;27.90;;;12.48;;
56599;SDS011;51832;48.152;11.530;2024-03-08T07:14:06;27.20;;;12.05;;
56599;SDS011;51832;48.152;11.530;2024-03-08T07:19:06;24.83;;;11.48;;
56599;SDS011;51832;48.152;11.530;2024-03-08T07:24:07;23.25;;;10.98;;
56599;SDS011;51832;48.152;11.530;2024-03-08T07:29:17;21.45;;;9.93;;
56599;SDS011;51832;48.152;11.530;2024-03-08T07:34:17;20.10;;;10.02;;
56599;SDS011;51832;48.152;11.530;2024-03-08T07:39:18;28.92;;;11.00;;
56599;SDS011;51832;48.152;11.530;2024-03-08T07:44:19;25.13;;;11.10;;
56599;SDS011;51832;48.152;11.530;2024-03-08T07:49:19;19.77;;;11.02;;
56599;SDS011;51832;48.152;11.530;2024-03-08T07:54:20;23.83;;;11.18;;
56599;SDS011;51832;48.152;11.530;2024-03-08T07:59:21;25.85;;;11.27;;
56599;SDS011;51832;48.152;11.530;2024-03-08T08:04:21;21.27;;;11.15;;
56599;SDS011;51832;48.152;11.530;2024-03-08T08:09:24;23.45;;;11.30;;
56599;SDS011;51832;48.152;11.530;2024-03-08T08:14:28;25.45;;;11.43;;
56599;SDS011;51832;48.152;11.530;2024-03-08T08:19:29;26.10;;;11.43;;
56599;SDS011;51832;48.152;11.530;2024-03-08T08:24:30;23.92;;;12.30;;
56599;SDS011;51832;48.152;11.530;2024-03-08T08:29:30;23.45;;;11.52;;
56599;SDS011;51832;48.152;11.530;2024-03-08T08:34:33;22.95;;;11.60;;
56599;SDS011;51832;48.152;11.530;2024-03-08T08:39:33;23.42;;;11.20;;
56599;SDS011;51832;48.152;11.530;2024-03-08T08:44:34;24.55;;;11.88;;
56599;SDS011;51832;48.152;11.530;2024-03-08T08:49:35;22.92;;;11.15;;
56599;SDS011;51832;48.152;11.530;2024-03-08T08:54:36;27.05;;;11.73;;
56599;SDS011;51832;48.152;11.530;2024-03-08T08:59:36;20.73;;;10.95;;
56599;SDS011;51832;48.152;11.530;2024-03-08T09:04:39;23.42;;;12.00;;
56599;SDS011;51832;48.152;11.530;2024-03-08T09:09:41;24.00;;;11.52;;
56599;SDS011;51832;48.152;11.530;2024-03-08T09:14:42;26.87;;;12.33;;
56599;SDS011;51832;48.152;11.530;2024-03-08T09:19:43;24.13;;;12.57;;
56599;SDS011;51832;48.152;11.530;2024-03-08T09:24:43;27.33;;;11.77;;
56599;SDS011;51832;48.152;11.530;2024-03-08T09:29:44;26.92;;;12.13;;
56599;SDS011;51832;48.152;11.530;2024-03-08T09:34:44;25.90;;;12.25;;
56599;SDS011;51832;48.152;11.530;2024-03-08T09:39:45;27.35;;;12.15;;
56599;SDS011;51832;48.152;11.530;2024-03-08T09:44:46;31.38;;;12.85;;
56599;SDS011;51832;48.152;11.530;2024-03-08T09:49:47;27.48;;;12.65;;
56599;SDS011;51832;48.152;11.530;2024-03-08T09:54:48;22.17;;;11.10;;
56599;SDS011;51832;48.152;11.530;2024-03-08T09:59:49;25.33;;;11.60;;
56599;SDS011;51832;48.152;11.530;2024-03-08T10:04:51;24.02;;;11.70;;
56599;SDS011;51832;48.152;11.530;2024-03-08T10:09:53;23.50;;;11.37;;
56599;SDS011;51832;48.152;11.530;2024-03-08T10:14:55;25.48;;;11.80;;
56599;SDS011;51832;48.152;11.530;2024-03-08T10:19:56;21.37;;;10.83;;
56599;SDS011;51832;48.152;11.530;2024-03-08T10:24:59;24.33;;;11.70;;
56599;SDS011;51832;48.152;11.530;2024-03-08T10:30:00;24.05;;;11.43;;
56599;SDS011;51832;48.152;11.530;2024-03-08T10:35:01;25.05;;;11.05;;
56599;SDS011;51832;48.152;11.530;2024-03-08T10:40:02;17.95;;;10.13;;
56599;SDS011;51832;48.152;11.530;2024-03-08T10:45:13;19.30;;;9.60;;
56599;SDS011;51832;48.152;11.530;2024-03-08T10:50:23;19.52;;;10.18;;
56599;SDS011;51832;48.152;11.530;2024-03-08T10:55:25;21.45;;;10.45;;
56599;SDS011;51832;48.152;11.530;2024-03-08T11:00:28;19.02;;;9.43;;
56599;SDS011;51832;48.152;11.530;2024-03-08T11:05:36;18.80;;;9.85;;
56599;SDS011;51832;48.152;11.530;2024-03-08T11:10:51;17.58;;;9.65;;
56599;SDS011;51832;48.152;11.530;2024-03-08T11:15:54;18.05;;;9.60;;
56599;SDS011;51832;48.152;11.530;2024-03-08T11:20:54;21.67;;;10.27;;
56599;SDS011;51832;48.152;11.530;2024-03-08T11:25:55;21.52;;;10.70;;
56599;SDS011;51832;48.152;11.530;2024-03-08T11:41:20;20.77;;;10.43;;
56599;SDS011;51832;48.152;11.530;2024-03-08T11:46:24;22.17;;;11.75;;
56599;SDS011;51832;48.152;11.530;2024-03-08T11:51:24;23.92;;;11.27;;
56599;SDS011;51832;48.152;11.530;2024-03-08T11:56:25;22.38;;;11.75;;
56599;SDS011;51832;48.152;11.530;2024-03-08T12:01:27;21.00;;;10.88;;
56599;SDS011;51832;48.152;11.530;2024-03-08T12:06:27;21.27;;;10.98;;
56599;SDS011;51832;48.152;11.530;2024-03-08T12:11:39;20.85;;;10.43;;
56599;SDS011;51832;48.152;11.530;2024-03-08T12:16:41;21.38;;;11.15;;
56599;SDS011;51832;48.152;11.530;2024-03-08T12:21:42;17.63;;;10.25;;
56599;SDS011;51832;48.152;11.530;2024-03-08T12:26:48;19.65;;;11.15;;
56599;SDS011;51832;48.152;11.530;2024-03-08T12:31:52;16.98;;;9.15;;
56599;SDS011;51832;48.152;11.530;2024-03-08T12:36:58;18.02;;;9.50;;
56599;SDS011;51832;48.152;11.530;2024-03-08T12:41:59;21.05;;;11.77;;
56599;SDS011;51832;48.152;11.530;2024-03-08T12:47:00;22.77;;;10.70;;
56599;SDS011;51832;48.152;11.530;2024-03-08T12:52:01;22.17;;;11.05;;
56599;SDS011;51832;48.152;11.530;2024-03-08T12:57:01;20.63;;;10.38;;
56599;SDS011;51832;48.152;11.530;2024-03-08T13:02:05;20.90;;;11.15;;
56599;SDS011;51832;48.152;11.530;2024-03-08T13:07:11;18.60;;;10.55;;
56599;SDS011;51832;48.152;11.530;2024-03-08T13:12:11;18.50;;;10.23;;
56599;SDS011;51832;48.152;11.530;2024-03-08T13:17:12;17.05;;;10.00;;
56599;SDS011;51832;48.152;11.530;2024-03-08T13:22:15;17.08;;;9.82;;
56599;SDS011;51832;48.152;11.530;2024-03-08T13:27:16;22.52;;;10.52;;
56599;SDS011;51832;48.152;11.530;2024-03-08T13:32:19;17.02;;;9.75;;
56599;SDS011;51832;48.152;11.530;2024-03-08T13:37:24;17.60;;;9.85;;
56599;SDS011;51832;48.152;11.530;2024-03-08T13:42:24;15.48;;;9.48;;
56599;SDS011;51832;48.152;11.530;2024-03-08T13:47:25;18.70;;;9.60;;
56599;SDS011;51832;48.152;11.530;2024-03-08T13:52:25;19.55;;;9.75;;
56599;SDS011;51832;48.152;11.530;2024-03-08T13:57:29;15.85;;;9.85;;
56599;SDS011;51832;48.152;11.530;2024-03-08T14:02:30;16.58;;;9.57;;
56599;SDS011;51832;48.152;11.530;2024-03-08T14:07:31;16.33;;;9.57;;
56599;SDS011;51832;48.152;11.530;2024-03-08T14:12:33;17.27;;;9.68;;
56599;SDS011;51832;48.152;11.530;2024-03-08T14:17:35;18.45;;;9.60;;
56599;SDS011;51832;48.152;11.530;2024-03-08T14:22:36;15.90;;;9.52;;
56599;SDS011;51832;48.152;11.530;2024-03-08T14:27:36;16.48;;;10.23;;
56599;SDS011;51832;48.152;11.530;2024-03-08T14:32:37;16.38;;;9.90;;
56599;SDS011;51832;48.152;11.530;2024-03-08T14:37:38;16.60;;;10.18;;
56599;SDS011;51832;48.152;11.530;2024-03-08T14:42:41;16.45;;;10.18;;
56599;SDS011;51832;48.152;11.530;2024-03-08T14:47:42;16.65;;;11.13;;
56599;SDS011;51832;48.152;11.530;2024-03-08T14:52:43;15.20;;;9.95;;
56599;SDS011;51832;48.152;11.530;2024-03-08T14:57:45;14.82;;;9.85;;
56599;SDS011;51832;48.152;11.530;2024-03-08T15:02:46;16.77;;;10.18;;
56599;SDS011;51832;48.152;11.530;2024-03-08T15:07:46;14.52;;;9.57;;
56599;SDS011;51832;48.152;11.530;2024-03-08T15:12:49;14.50;;;10.68;;
56599;SDS011;51832;48.152;11.530;2024-03-08T15:17:49;13.13;;;9.77;;
56599;SDS011;51832;48.152;11.530;2024-03-08T15:22:51;16.95;;;10.32;;
56599;SDS011;51832;48.152;11.530;2024-03-08T15:27:55;14.73;;;9.85;;
56599;SDS011;51832;48.152;11.530;2024-03-08T15:32:55;13.85;;;9.98;;
56599;SDS011;51832;48.152;11.530;2024-03-08T15:37:57;12.95;;;10.15;;
56599;SDS011;51832;48.152;11.530;2024-03-08T15:42:58;15.07;;;9.52;;
56599;SDS011;51832;48.152;11.530;2024-03-08T15:47:59;13.07;;;9.10;;
56599;SDS011;51832;48.152;11.530;2024-03-08T15:53:05;13.85;;;8.95;;
56599;SDS011;51832;48.152;11.530;2024-03-08T15:58:06;11.35;;;8.82;;
56599;SDS011;51832;48.152;11.530;2024-03-08T16:03:07;13.15;;;9.77;;
56599;SDS011;51832;48.152;11.530;2024-03-08T16:08:11;14.10;;;10.13;;
56599;SDS011;51832;48.152;11.530;2024-03-08T16:13:15;13.00;;;9.07;;
56599;SDS011;51832;48.152;11.530;2024-03-08T16:18:17;12.50;;;9.07;;
56599;SDS011;51832;48.152;11.530;2024-03-08T16:23:22;14.15;;;9.93;;
56599;SDS011;51832;48.152;11.530;2024-03-08T16:28:24;12.70;;;9.13;;
56599;SDS011;51832;48.152;11.530;2024-03-08T16:33:38;14.98;;;10.13;;
56599;SDS011;51832;48.152;11.530;2024-03-08T16:38:39;14.13;;;9.73;;
56599;SDS011;51832;48.152;11.530;2024-03-08T16:43:43;16.15;;;10.10;;
56599;SDS011;51832;48.152;11.530;2024-03-08T16:48:44;14.85;;;10.52;;
56599;SDS011;51832;48.152;11.530;2024-03-08T16:53:44;15.10;;;10.18;;
56599;SDS011;51832;48.152;11.530;2024-03-08T16:58:47;14.40;;;9.85;;
56599;SDS011;51832;48.152;11.530;2024-03-08T17:03:48;14.82;;;9.90;;
56599;SDS011;51832;48.152;11.530;2024-03-08T17:08:49;15.13;;;9.77;;
56599;SDS011;51832;48.152;11.530;2024-03-08T17:13:49;16.30;;;10.35;;
56599;SDS011;51832;48.152;11.530;2024-03-08T17:18:50;15.43;;;9.98;;
56599;SDS011;51832;48.152;11.530;2024-03-08T17:23:50;15.05;;;9.63;;
56599;SDS011;51832;48.152;11.530;2024-03-08T17:28:51;16.13;;;9.90;;
56599;SDS011;51832;48.152;11.530;2024-03-08T17:33:51;21.08;;;9.75;;
56599;SDS011;51832;48.152;11.530;2024-03-08T17:38:52;16.40;;;9.52;;
56599;SDS011;51832;48.152;11.530;2024-03-08T17:43:53;18.13;;;10.45;;
56599;SDS011;51832;48.152;11.530;2024-03-08T17:48:53;19.10;;;10.02;;
56599;SDS011;51832;48.152;11.530;2024-03-08T17:53:54;19.17;;;10.77;;
56599;SDS011;51832;48.152;11.530;2024-03-08T17:58:55;18.98;;;11.10;;
56599;SDS011;51832;48.152;11.530;2024-03-08T18:03:55;17.27;;;10.40;;
56599;SDS011;51832;48.152;11.530;2024-03-08T18:08:56;17.98;;;10.07;;
56599;SDS011;51832;48.152;11.530;2024-03-08T18:13:56;18.65;;;11.02;;
56599;SDS011;51832;48.152;11.530;2024-03-08T18:18:57;19.98;;;11.05;;
56599;SDS011;51832;48.152;11.530;2024-03-08T18:23:59;19.27;;;11.23;;
56599;SDS011;51832;48.152;11.530;2024-03-08T18:29:01;23.63;;;11.93;;
56599;SDS011;51832;48.152;11.530;2024-03-08T18:34:09;17.52;;;10.80;;
56599;SDS011;51832;48.152;11.530;2024-03-08T18:39:09;20.70;;;11.75;;
56599;SDS011;51832;48.152;11.530;2024-03-08T18:44:16;20.08;;;11.55;;
56599;SDS011;51832;48.152;11.530;2024-03-08T18:49:18;19.13;;;10.38;;
56599;SDS011;51832;48.152;11.530;2024-03-08T18:54:18;19.70;;;10.02;;
56599;SDS011;51832;48.152;11.530;2024-03-08T18:59:19;16.60;;;9.40;;
56599;SDS011;51832;48.152;11.530;2024-03-08T19:04:19;19.73;;;10.88;;
56599;SDS011;51832;48.152;11.530;2024-03-08T19:09:20;18.80;;;10.55;;
56599;SDS011;51832;48.152;11.530;2024-03-08T19:14:20;18.25;;;9.73;;
56599;SDS011;51832;48.152;11.530;2024-03-08T19:19:21;20.65;;;10.82;;
56599;SDS011;51832;48.152;11.530;2024-03-08T19:24:22;19.85;;;9.95;;
56599;SDS011;51832;48.152;11.530;2024-03-08T19:29:23;19.80;;;10.57;;
56599;SDS011;51832;48.152;11.530;2024-03-08T19:34:25;18.80;;;9.45;;
56599;SDS011;51832;48.152;11.530;2024-03-08T19:39:25;15.73;;;9.25;;
56599;SDS011;51832;48.152;11.530;2024-03-08T19:44:27;16.35;;;8.88;;
56599;SDS011;51832;48.152;11.530;2024-03-08T19:49:28;16.95;;;9.48;;
56599;SDS011;51832;48.152;11.530;2024-03-08T19:54:28;16.42;;;9.30;;
56599;SDS011;51832;48.152;11.530;2024-03-08T19:59:29;18.80;;;9.88;;
56599;SDS011;51832;48.152;11.530;2024-03-08T20:04:30;17.35;;;9.70;;
56599;SDS011;51832;48.152;11.530;2024-03-08T20:09:31;18.00;;;9.82;;
56599;SDS011;51832;48.152;11.530;2024-03-08T20:14:32;22.38;;;11.80;;
56599;SDS011;51832;48.152;11.530;2024-03-08T20:19:35;16.33;;;9.00;;
56599;SDS011;51832;48.152;11.530;2024-03-08T20:24:36;23.25;;;11.38;;
56599;SDS011;51832;48.152;11.530;2024-03-08T20:29:38;22.92;;;11.68;;
56599;SDS011;51832;48.152;11.530;2024-03-08T20:34:40;15.00;;;9.30;;
56599;SDS011;51832;48.152;11.530;2024-03-08T20:39:45;18.83;;;10.40;;
56599;SDS011;51832;48.152;11.530;2024-03-08T20:44:46;14.50;;;7.97;;
56599;SDS011;51832;48.152;11.530;2024-03-08T20:49:47;15.45;;;8.65;;
56599;SDS011;51832;48.152;11.530;2024-03-08T20:54:50;16.67;;;9.18;;
56599;SDS011;51832;48.152;11.530;2024-03-08T20:59:50;15.00;;;8.73;;
56599;SDS011;51832;48.152;11.530;2024-03-08T21:04:51;17.58;;;9.05;;
56599;SDS011;51832;48.152;11.530;2024-03-08T21:09:52;19.92;;;9.25;;
56599;SDS011;51832;48.152;11.530;2024-03-08T21:14:53;19.50;;;8.85;;
56599;SDS011;51832;48.152;11.530;2024-03-08T21:19:53;15.13;;;8.82;;
56599;SDS011;51832;48.152;11.530;2024-03-08T21:24:54;14.68;;;9.07;;
56599;SDS011;51832;48.152;11.530;2024-03-08T21:29:54;14.70;;;7.65;;
56599;SDS011;51832;48.152;11.530;2024-03-08T21:34:56;17.40;;;9.18;;
56599;SDS011;51832;48.152;11.530;2024-03-08T21:39:57;16.83;;;8.32;;
56599;SDS011;51832;48.152;11.530;2024-03-08T21:44:57;15.68;;;8.25;;
56599;SDS011;51832;48.152;11.530;2024-03-08T21:49:58;14.55;;;8.57;;
56599;SDS011;51832;48.152;11.530;2024-03-08T21:54:59;15.75;;;7.90;;
56599;SDS011;51832;48.152;11.530;2024-03-08T21:59:59;13.55;;;7.95;;
56599;SDS011;51832;48.152;11.530;2024-03-08T22:05:00;14.48;;;8.65;;
56599;SDS011;51832;48.152;11.530;2024-03-08T22:10:04;14.18;;;8.05;;
56599;SDS011;51832;48.152;11.530;2024-03-08T22:15:04;16.38;;;8.55;;
56599;SDS011;51832;48.152;11.530;2024-03-08T22:20:10;13.50;;;7.95;;
56599;SDS011;51832;48.152;11.530;2024-03-08T22:25:19;15.02;;;8.07;;
56599;SDS011;51832;48.152;11.530;2024-03-08T22:30:22;14.60;;;7.83;;
56599;SDS011;51832;48.152;11.530;2024-03-08T22:35:23;14.45;;;7.63;;
56599;SDS011;51832;48.152;11.530;2024-03-08T22:40:24;14.25;;;7.78;;
56599;SDS011;51832;48.152;11.530;2024-03-08T22:45:24;13.82;;;8.07;;
56599;SDS011;51832;48.152;11.530;2024-03-08T22:50:27;15.07;;;8.57;;
56599;SDS011;51832;48.152;11.530;2024-03-08T22:55:27;15.40;;;7.90;;
56599;SDS011;51832;48.152;11.530;2024-03-08T23:00:28;16.85;;;8.25;;
56599;SDS011;51832;48.152;11.530;2024-03-08T23:05:52;12.68;;;8.10;;
56599;SDS011;51832;48.152;11.530;2024-03-08T23:10:52;15.18;;;8.18;;
56599;SDS011;51832;48.152;11.530;2024-03-08T23:15:53;15.95;;;7.63;;
56599;SDS011;51832;48.152;11.530;2024-03-08T23:20:54;15.93;;;8.75;;
56599;SDS011;51832;48.152;11.530;2024-03-08T23:25:55;16.95;;;8.60;;
56599;SDS011;51832;48.152;11.530;2024-03-08T23:30:56;14.27;;;7.68;;
56599;SDS011;51832;48.152;11.530;2024-03-08T23:35:57;13.85;;;7.75;;
56599;SDS011;51832;48.152;11.530;2024-03-08T23:40:57;14.98;;;7.90;;
56599;SDS011;51832;48.152;11.530;2024-03-08T23:45:58;11.57;;;6.80;;
56599;SDS011;51832;48.152;11.530;2024-03-08T23:50:59;13.98;;;7.35;;
56599;SDS011;51832;48.152;11.530;2024-03-08T23:55:59;12.10;;;7.20;;
